sensor_id;sensor_type;location;lat;lon;timestamp;temperature;humidity
21355;DHT22;10835;50.148;19.760;2023-07-16T00:00:39;27.40;64.20
21355;DHT22;10835;50.148;19.760;2023-07-16T00:03:07;27.20;63.70
21355;DHT22;10835;50.148;19.760;2023-07-16T00:05:36;27.40;64.50
21355;DHT22;10835;50.148;19.760;2023-07-16T00:08:06;27.40;63.90
21355;DHT22;10835;50.148;19.760;2023-07-16T00:10:35;27.50;63.90
21355;DHT22;10835;50.148;19.760;2023-07-16T00:13:05;27.40;64.00
21355;DHT22;10835;50.148;19.760;2023-07-16T00:15:33;27.70;63.30
21355;DHT22;10835;50.148;19.760;2023-07-16T00:18:01;27.40;63.60
21355;DHT22;10835;50.148;19.760;2023-07-16T00:20:31;27.40;65.00
21355;DHT22;10835;50.148;19.760;2023-07-16T00:22:59;27.40;65.30
21355;DHT22;10835;50.148;19.760;2023-07-16T00:25:28;27.40;63.90
21355;DHT22;10835;50.148;19.760;2023-07-16T00:27:59;27.40;64.00
21355;DHT22;10835;50.148;19.760;2023-07-16T00:30:29;27.50;64.00
21355;DHT22;10835;50.148;19.760;2023-07-16T00:32:57;27.20;64.00
21355;DHT22;10835;50.148;19.760;2023-07-16T00:35:27;27.00;65.20
21355;DHT22;10835;50.148;19.760;2023-07-16T00:37:55;26.90;65.30
21355;DHT22;10835;50.148;19.760;2023-07-16T00:40:26;26.70;65.30
21355;DHT22;10835;50.148;19.760;2023-07-16T00:42:54;26.60;65.40
21355;DHT22;10835;50.148;19.760;2023-07-16T00:45:23;26.60;66.00
21355;DHT22;10835;50.148;19.760;2023-07-16T00:47:52;26.60;66.10
21355;DHT22;10835;50.148;19.760;2023-07-16T00:50:21;26.60;66.20
21355;DHT22;10835;50.148;19.760;2023-07-16T00:52:49;26.60;66.40
21355;DHT22;10835;50.148;19.760;2023-07-16T00:55:18;26.60;66.40
21355;DHT22;10835;50.148;19.760;2023-07-16T00:57:46;26.40;67.10
21355;DHT22;10835;50.148;19.760;2023-07-16T01:00:15;26.40;66.70
21355;DHT22;10835;50.148;19.760;2023-07-16T01:02:43;26.30;66.80
21355;DHT22;10835;50.148;19.760;2023-07-16T01:05:13;26.40;67.00
21355;DHT22;10835;50.148;19.760;2023-07-16T01:07:55;26.60;67.00
21355;DHT22;10835;50.148;19.760;2023-07-16T01:10:27;26.80;66.50
21355;DHT22;10835;50.148;19.760;2023-07-16T01:12:56;27.00;65.60
21355;DHT22;10835;50.148;19.760;2023-07-16T01:15:25;26.90;65.60
21355;DHT22;10835;50.148;19.760;2023-07-16T01:17:53;27.00;66.20
21355;DHT22;10835;50.148;19.760;2023-07-16T01:20:23;27.00;65.70
21355;DHT22;10835;50.148;19.760;2023-07-16T01:23:14;27.00;65.70
21355;DHT22;10835;50.148;19.760;2023-07-16T01:26:11;27.00;65.30
21355;DHT22;10835;50.148;19.760;2023-07-16T01:31:29;26.90;65.60
21355;DHT22;10835;50.148;19.760;2023-07-16T01:33:59;26.70;65.30
21355;DHT22;10835;50.148;19.760;2023-07-16T01:36:29;26.50;65.80
21355;DHT22;10835;50.148;19.760;2023-07-16T01:38:58;26.40;66.20
21355;DHT22;10835;50.148;19.760;2023-07-16T01:41:27;26.40;66.70
21355;DHT22;10835;50.148;19.760;2023-07-16T01:43:55;26.30;66.70
21355;DHT22;10835;50.148;19.760;2023-07-16T01:46:24;26.20;66.90
21355;DHT22;10835;50.148;19.760;2023-07-16T01:48:54;26.10;68.20
21355;DHT22;10835;50.148;19.760;2023-07-16T01:51:22;26.20;67.60
21355;DHT22;10835;50.148;19.760;2023-07-16T01:53:52;26.30;67.70
21355;DHT22;10835;50.148;19.760;2023-07-16T01:56:20;26.20;67.70
21355;DHT22;10835;50.148;19.760;2023-07-16T01:58:48;26.20;67.60
21355;DHT22;10835;50.148;19.760;2023-07-16T02:01:17;26.30;68.10
21355;DHT22;10835;50.148;19.760;2023-07-16T02:03:46;26.10;67.60
21355;DHT22;10835;50.148;19.760;2023-07-16T02:06:15;26.20;68.90
21355;DHT22;10835;50.148;19.760;2023-07-16T02:08:44;26.00;67.60
21355;DHT22;10835;50.148;19.760;2023-07-16T02:11:12;26.00;68.20
21355;DHT22;10835;50.148;19.760;2023-07-16T02:13:41;26.00;68.60
21355;DHT22;10835;50.148;19.760;2023-07-16T02:16:09;25.90;68.20
21355;DHT22;10835;50.148;19.760;2023-07-16T02:18:39;25.70;68.80
21355;DHT22;10835;50.148;19.760;2023-07-16T02:21:08;25.80;69.30
21355;DHT22;10835;50.148;19.760;2023-07-16T02:23:37;25.60;68.90
21355;DHT22;10835;50.148;19.760;2023-07-16T02:26:06;25.70;69.60
21355;DHT22;10835;50.148;19.760;2023-07-16T02:28:34;25.70;69.50
21355;DHT22;10835;50.148;19.760;2023-07-16T02:31:02;25.70;69.70
21355;DHT22;10835;50.148;19.760;2023-07-16T02:33:32;25.90;69.20
21355;DHT22;10835;50.148;19.760;2023-07-16T02:36:00;25.90;69.20
21355;DHT22;10835;50.148;19.760;2023-07-16T02:38:29;25.90;69.10
21355;DHT22;10835;50.148;19.760;2023-07-16T02:40:59;26.10;68.90
21355;DHT22;10835;50.148;19.760;2023-07-16T02:43:27;26.40;68.60
21355;DHT22;10835;50.148;19.760;2023-07-16T02:45:58;26.60;68.20
21355;DHT22;10835;50.148;19.760;2023-07-16T02:48:28;26.60;67.80
21355;DHT22;10835;50.148;19.760;2023-07-16T02:50:56;26.80;67.70
21355;DHT22;10835;50.148;19.760;2023-07-16T02:53:25;26.80;66.40
21355;DHT22;10835;50.148;19.760;2023-07-16T02:55:53;26.80;66.10
21355;DHT22;10835;50.148;19.760;2023-07-16T02:58:23;26.80;66.20
21355;DHT22;10835;50.148;19.760;2023-07-16T03:00:51;26.80;66.20
21355;DHT22;10835;50.148;19.760;2023-07-16T03:03:20;26.80;66.30
21355;DHT22;10835;50.148;19.760;2023-07-16T03:05:48;26.90;66.60
21355;DHT22;10835;50.148;19.760;2023-07-16T03:08:17;26.80;66.00
21355;DHT22;10835;50.148;19.760;2023-07-16T03:10:46;26.70;66.20
21355;DHT22;10835;50.148;19.760;2023-07-16T03:13:15;26.80;66.10
21355;DHT22;10835;50.148;19.760;2023-07-16T03:15:44;26.50;66.40
21355;DHT22;10835;50.148;19.760;2023-07-16T03:18:13;26.30;67.10
21355;DHT22;10835;50.148;19.760;2023-07-16T03:20:41;26.10;67.40
21355;DHT22;10835;50.148;19.760;2023-07-16T03:23:10;26.00;68.20
21355;DHT22;10835;50.148;19.760;2023-07-16T03:25:39;26.00;68.20
21355;DHT22;10835;50.148;19.760;2023-07-16T03:28:07;25.90;69.60
21355;DHT22;10835;50.148;19.760;2023-07-16T03:30:35;26.00;69.40
21355;DHT22;10835;50.148;19.760;2023-07-16T03:33:06;26.00;69.00
21355;DHT22;10835;50.148;19.760;2023-07-16T03:35:34;26.00;69.20
21355;DHT22;10835;50.148;19.760;2023-07-16T03:38:03;26.00;69.10
21355;DHT22;10835;50.148;19.760;2023-07-16T03:40:31;26.30;69.20
21355;DHT22;10835;50.148;19.760;2023-07-16T03:43:02;26.30;68.70
21355;DHT22;10835;50.148;19.760;2023-07-16T03:45:30;26.20;68.90
21355;DHT22;10835;50.148;19.760;2023-07-16T03:47:59;26.40;68.70
21355;DHT22;10835;50.148;19.760;2023-07-16T03:50:29;26.60;68.40
21355;DHT22;10835;50.148;19.760;2023-07-16T03:52:57;26.70;67.90
21355;DHT22;10835;50.148;19.760;2023-07-16T03:55:26;26.80;67.70
21355;DHT22;10835;50.148;19.760;2023-07-16T03:57:55;26.80;67.70
21355;DHT22;10835;50.148;19.760;2023-07-16T04:00:23;27.00;68.50
21355;DHT22;10835;50.148;19.760;2023-07-16T04:02:52;27.10;67.80
21355;DHT22;10835;50.148;19.760;2023-07-16T04:05:21;27.40;67.70
21355;DHT22;10835;50.148;19.760;2023-07-16T04:07:52;27.60;66.40
21355;DHT22;10835;50.148;19.760;2023-07-16T04:10:20;27.60;66.70
21355;DHT22;10835;50.148;19.760;2023-07-16T04:12:49;27.80;66.30
21355;DHT22;10835;50.148;19.760;2023-07-16T04:15:17;27.90;65.90
21355;DHT22;10835;50.148;19.760;2023-07-16T04:17:47;28.00;65.60
21355;DHT22;10835;50.148;19.760;2023-07-16T04:20:16;28.00;65.40
21355;DHT22;10835;50.148;19.760;2023-07-16T04:22:44;28.20;64.80
21355;DHT22;10835;50.148;19.760;2023-07-16T04:25:14;28.20;64.70
21355;DHT22;10835;50.148;19.760;2023-07-16T04:27:42;28.10;64.80
21355;DHT22;10835;50.148;19.760;2023-07-16T04:30:11;28.00;65.60
21355;DHT22;10835;50.148;19.760;2023-07-16T04:32:42;27.90;66.40
21355;DHT22;10835;50.148;19.760;2023-07-16T04:35:10;27.90;67.20
21355;DHT22;10835;50.148;19.760;2023-07-16T04:37:39;28.10;67.00
21355;DHT22;10835;50.148;19.760;2023-07-16T04:40:08;28.10;66.80
21355;DHT22;10835;50.148;19.760;2023-07-16T04:42:37;28.30;66.60
21355;DHT22;10835;50.148;19.760;2023-07-16T04:45:07;28.40;66.80
21355;DHT22;10835;50.148;19.760;2023-07-16T04:47:36;28.60;67.30
21355;DHT22;10835;50.148;19.760;2023-07-16T04:50:06;28.90;66.60
21355;DHT22;10835;50.148;19.760;2023-07-16T04:52:34;29.20;66.00
21355;DHT22;10835;50.148;19.760;2023-07-16T04:55:03;29.50;65.10
21355;DHT22;10835;50.148;19.760;2023-07-16T04:57:32;29.50;64.70
21355;DHT22;10835;50.148;19.760;2023-07-16T05:00:02;29.60;64.50
21355;DHT22;10835;50.148;19.760;2023-07-16T05:02:33;29.70;63.60
21355;DHT22;10835;50.148;19.760;2023-07-16T05:05:01;30.00;62.50
21355;DHT22;10835;50.148;19.760;2023-07-16T05:07:30;30.10;62.10
21355;DHT22;10835;50.148;19.760;2023-07-16T05:09:58;30.20;61.90
21355;DHT22;10835;50.148;19.760;2023-07-16T05:12:26;30.40;61.90
21355;DHT22;10835;50.148;19.760;2023-07-16T05:14:54;30.70;61.00
21355;DHT22;10835;50.148;19.760;2023-07-16T05:17:24;30.90;60.60
21355;DHT22;10835;50.148;19.760;2023-07-16T05:19:52;31.00;60.10
21355;DHT22;10835;50.148;19.760;2023-07-16T05:22:21;31.10;60.00
21355;DHT22;10835;50.148;19.760;2023-07-16T05:24:49;31.30;62.20
21355;DHT22;10835;50.148;19.760;2023-07-16T05:27:18;31.50;63.10
21355;DHT22;10835;50.148;19.760;2023-07-16T05:29:46;31.70;63.30
21355;DHT22;10835;50.148;19.760;2023-07-16T05:32:14;31.90;64.50
21355;DHT22;10835;50.148;19.760;2023-07-16T05:34:44;32.10;64.20
21355;DHT22;10835;50.148;19.760;2023-07-16T05:37:12;32.30;62.00
21355;DHT22;10835;50.148;19.760;2023-07-16T05:39:41;32.50;61.80
21355;DHT22;10835;50.148;19.760;2023-07-16T05:42:09;32.60;60.70
21355;DHT22;10835;50.148;19.760;2023-07-16T05:44:37;32.80;60.70
21355;DHT22;10835;50.148;19.760;2023-07-16T05:47:06;32.90;59.30
21355;DHT22;10835;50.148;19.760;2023-07-16T05:49:35;33.00;57.80
21355;DHT22;10835;50.148;19.760;2023-07-16T05:52:06;33.10;57.60
21355;DHT22;10835;50.148;19.760;2023-07-16T05:54:35;33.20;56.50
21355;DHT22;10835;50.148;19.760;2023-07-16T05:57:04;33.10;56.40
21355;DHT22;10835;50.148;19.760;2023-07-16T05:59:32;33.20;56.00
21355;DHT22;10835;50.148;19.760;2023-07-16T06:02:01;33.30;55.10
21355;DHT22;10835;50.148;19.760;2023-07-16T06:04:29;33.30;54.00
21355;DHT22;10835;50.148;19.760;2023-07-16T06:06:58;33.20;55.00
21355;DHT22;10835;50.148;19.760;2023-07-16T06:09:27;33.30;55.50
21355;DHT22;10835;50.148;19.760;2023-07-16T06:11:59;33.30;54.40
21355;DHT22;10835;50.148;19.760;2023-07-16T06:14:27;33.30;54.80
21355;DHT22;10835;50.148;19.760;2023-07-16T06:16:57;33.20;55.30
21355;DHT22;10835;50.148;19.760;2023-07-16T06:19:26;33.20;57.40
21355;DHT22;10835;50.148;19.760;2023-07-16T06:21:54;33.50;54.30
21355;DHT22;10835;50.148;19.760;2023-07-16T06:24:22;33.40;55.90
21355;DHT22;10835;50.148;19.760;2023-07-16T06:26:52;33.60;54.50
21355;DHT22;10835;50.148;19.760;2023-07-16T06:29:20;33.60;54.30
21355;DHT22;10835;50.148;19.760;2023-07-16T06:31:54;33.70;54.70
21355;DHT22;10835;50.148;19.760;2023-07-16T06:34:24;33.40;54.90
21355;DHT22;10835;50.148;19.760;2023-07-16T06:36:52;33.70;52.50
21355;DHT22;10835;50.148;19.760;2023-07-16T06:39:23;33.20;53.50
21355;DHT22;10835;50.148;19.760;2023-07-16T06:41:53;33.10;55.70
21355;DHT22;10835;50.148;19.760;2023-07-16T06:44:22;33.00;54.80
21355;DHT22;10835;50.148;19.760;2023-07-16T06:46:50;33.00;54.70
21355;DHT22;10835;50.148;19.760;2023-07-16T06:49:19;33.20;55.90
21355;DHT22;10835;50.148;19.760;2023-07-16T06:51:48;33.10;53.70
21355;DHT22;10835;50.148;19.760;2023-07-16T06:54:16;33.30;54.40
21355;DHT22;10835;50.148;19.760;2023-07-16T06:56:44;33.40;54.40
21355;DHT22;10835;50.148;19.760;2023-07-16T06:59:14;33.50;53.50
21355;DHT22;10835;50.148;19.760;2023-07-16T07:01:43;33.70;53.30
21355;DHT22;10835;50.148;19.760;2023-07-16T07:04:12;33.70;52.70
21355;DHT22;10835;50.148;19.760;2023-07-16T07:06:40;33.30;53.70
21355;DHT22;10835;50.148;19.760;2023-07-16T07:09:08;33.40;52.60
21355;DHT22;10835;50.148;19.760;2023-07-16T07:11:37;33.20;52.60
21355;DHT22;10835;50.148;19.760;2023-07-16T07:14:05;33.10;53.80
21355;DHT22;10835;50.148;19.760;2023-07-16T07:16:38;33.40;52.90
21355;DHT22;10835;50.148;19.760;2023-07-16T07:19:08;33.40;52.90
21355;DHT22;10835;50.148;19.760;2023-07-16T07:21:36;33.40;54.60
21355;DHT22;10835;50.148;19.760;2023-07-16T07:24:05;33.60;54.70
21355;DHT22;10835;50.148;19.760;2023-07-16T07:26:33;33.70;51.90
21355;DHT22;10835;50.148;19.760;2023-07-16T07:29:01;33.40;52.70
21355;DHT22;10835;50.148;19.760;2023-07-16T07:31:30;33.50;53.30
21355;DHT22;10835;50.148;19.760;2023-07-16T07:33:59;33.60;55.10
21355;DHT22;10835;50.148;19.760;2023-07-16T07:36:29;33.70;52.40
21355;DHT22;10835;50.148;19.760;2023-07-16T07:38:57;33.90;52.00
21355;DHT22;10835;50.148;19.760;2023-07-16T07:41:28;34.00;52.10
21355;DHT22;10835;50.148;19.760;2023-07-16T07:43:56;34.10;51.00
21355;DHT22;10835;50.148;19.760;2023-07-16T07:46:25;34.10;52.40
21355;DHT22;10835;50.148;19.760;2023-07-16T07:48:53;34.20;50.80
21355;DHT22;10835;50.148;19.760;2023-07-16T07:51:23;34.50;51.10
21355;DHT22;10835;50.148;19.760;2023-07-16T07:53:51;34.30;50.90
21355;DHT22;10835;50.148;19.760;2023-07-16T07:56:20;34.50;48.80
21355;DHT22;10835;50.148;19.760;2023-07-16T07:58:48;34.50;48.30
21355;DHT22;10835;50.148;19.760;2023-07-16T08:01:16;34.50;48.30
21355;DHT22;10835;50.148;19.760;2023-07-16T08:03:45;34.50;47.70
21355;DHT22;10835;50.148;19.760;2023-07-16T08:06:13;34.50;46.80
21355;DHT22;10835;50.148;19.760;2023-07-16T08:08:43;34.60;49.50
21355;DHT22;10835;50.148;19.760;2023-07-16T08:11:12;34.60;46.80
21355;DHT22;10835;50.148;19.760;2023-07-16T08:13:40;34.80;49.20
21355;DHT22;10835;50.148;19.760;2023-07-16T08:16:08;34.60;49.40
21355;DHT22;10835;50.148;19.760;2023-07-16T08:18:37;34.60;48.30
21355;DHT22;10835;50.148;19.760;2023-07-16T08:21:05;34.70;48.80
21355;DHT22;10835;50.148;19.760;2023-07-16T08:23:34;34.60;49.30
21355;DHT22;10835;50.148;19.760;2023-07-16T08:26:03;34.70;48.90
21355;DHT22;10835;50.148;19.760;2023-07-16T08:28:32;34.60;49.40
21355;DHT22;10835;50.148;19.760;2023-07-16T08:31:00;34.80;48.30
21355;DHT22;10835;50.148;19.760;2023-07-16T08:33:28;34.60;49.90
21355;DHT22;10835;50.148;19.760;2023-07-16T08:35:57;34.90;47.20
21355;DHT22;10835;50.148;19.760;2023-07-16T08:38:25;34.90;48.30
21355;DHT22;10835;50.148;19.760;2023-07-16T08:40:53;34.90;48.20
21355;DHT22;10835;50.148;19.760;2023-07-16T08:43:23;34.90;48.90
21355;DHT22;10835;50.148;19.760;2023-07-16T08:45:52;35.10;48.80
21355;DHT22;10835;50.148;19.760;2023-07-16T08:48:21;35.20;47.70
21355;DHT22;10835;50.148;19.760;2023-07-16T08:50:50;35.30;47.10
21355;DHT22;10835;50.148;19.760;2023-07-16T08:53:18;35.30;47.70
21355;DHT22;10835;50.148;19.760;2023-07-16T08:55:48;35.10;46.40
21355;DHT22;10835;50.148;19.760;2023-07-16T08:58:19;34.90;46.40
21355;DHT22;10835;50.148;19.760;2023-07-16T09:00:52;35.10;45.60
21355;DHT22;10835;50.148;19.760;2023-07-16T09:03:20;35.20;46.80
21355;DHT22;10835;50.148;19.760;2023-07-16T09:05:49;35.30;48.00
21355;DHT22;10835;50.148;19.760;2023-07-16T09:08:17;35.20;46.60
21355;DHT22;10835;50.148;19.760;2023-07-16T09:10:53;35.50;46.10
21355;DHT22;10835;50.148;19.760;2023-07-16T09:13:23;35.50;45.00
21355;DHT22;10835;50.148;19.760;2023-07-16T09:15:57;35.60;46.10
21355;DHT22;10835;50.148;19.760;2023-07-16T09:18:27;35.60;45.30
21355;DHT22;10835;50.148;19.760;2023-07-16T09:20:56;35.40;45.70
21355;DHT22;10835;50.148;19.760;2023-07-16T09:23:25;35.40;46.20
21355;DHT22;10835;50.148;19.760;2023-07-16T09:25:54;35.50;47.00
21355;DHT22;10835;50.148;19.760;2023-07-16T09:28:23;35.50;45.70
21355;DHT22;10835;50.148;19.760;2023-07-16T09:30:52;35.40;46.50
21355;DHT22;10835;50.148;19.760;2023-07-16T09:33:23;35.50;47.70
21355;DHT22;10835;50.148;19.760;2023-07-16T09:35:53;35.60;46.20
21355;DHT22;10835;50.148;19.760;2023-07-16T09:38:22;35.70;47.30
21355;DHT22;10835;50.148;19.760;2023-07-16T09:40:52;35.60;46.50
21355;DHT22;10835;50.148;19.760;2023-07-16T09:43:24;35.60;46.20
21355;DHT22;10835;50.148;19.760;2023-07-16T09:45:52;35.60;45.70
21355;DHT22;10835;50.148;19.760;2023-07-16T09:48:22;35.60;47.40
21355;DHT22;10835;50.148;19.760;2023-07-16T09:50:52;35.70;46.30
21355;DHT22;10835;50.148;19.760;2023-07-16T09:53:21;35.80;45.60
21355;DHT22;10835;50.148;19.760;2023-07-16T09:55:54;35.90;46.40
21355;DHT22;10835;50.148;19.760;2023-07-16T09:58:23;35.90;46.20
21355;DHT22;10835;50.148;19.760;2023-07-16T10:00:52;36.10;46.40
21355;DHT22;10835;50.148;19.760;2023-07-16T10:03:22;35.90;46.20
21355;DHT22;10835;50.148;19.760;2023-07-16T10:05:51;35.80;46.30
21355;DHT22;10835;50.148;19.760;2023-07-16T10:08:20;35.90;46.30
21355;DHT22;10835;50.148;19.760;2023-07-16T10:10:52;36.00;47.00
21355;DHT22;10835;50.148;19.760;2023-07-16T10:13:24;36.10;46.70
21355;DHT22;10835;50.148;19.760;2023-07-16T10:15:53;36.10;48.40
21355;DHT22;10835;50.148;19.760;2023-07-16T10:18:30;36.40;47.10
21355;DHT22;10835;50.148;19.760;2023-07-16T10:21:02;36.20;47.80
21355;DHT22;10835;50.148;19.760;2023-07-16T10:23:39;36.30;47.20
21355;DHT22;10835;50.148;19.760;2023-07-16T10:26:10;36.10;46.60
21355;DHT22;10835;50.148;19.760;2023-07-16T10:28:43;36.30;47.50
21355;DHT22;10835;50.148;19.760;2023-07-16T10:31:17;36.40;47.70
21355;DHT22;10835;50.148;19.760;2023-07-16T10:33:58;36.40;45.40
21355;DHT22;10835;50.148;19.760;2023-07-16T10:36:27;36.40;47.80
21355;DHT22;10835;50.148;19.760;2023-07-16T10:39:02;36.50;45.20
21355;DHT22;10835;50.148;19.760;2023-07-16T10:41:30;36.70;47.20
21355;DHT22;10835;50.148;19.760;2023-07-16T10:44:00;36.80;46.80
21355;DHT22;10835;50.148;19.760;2023-07-16T10:46:28;37.00;46.10
21355;DHT22;10835;50.148;19.760;2023-07-16T10:49:00;36.60;47.50
21355;DHT22;10835;50.148;19.760;2023-07-16T10:51:28;36.70;46.60
21355;DHT22;10835;50.148;19.760;2023-07-16T10:53:57;36.70;47.40
21355;DHT22;10835;50.148;19.760;2023-07-16T10:56:26;36.80;47.20
21355;DHT22;10835;50.148;19.760;2023-07-16T10:58:54;36.50;48.90
21355;DHT22;10835;50.148;19.760;2023-07-16T11:01:22;36.60;48.30
21355;DHT22;10835;50.148;19.760;2023-07-16T11:03:51;36.90;48.40
21355;DHT22;10835;50.148;19.760;2023-07-16T11:06:20;36.80;47.00
21355;DHT22;10835;50.148;19.760;2023-07-16T11:08:49;36.80;47.60
21355;DHT22;10835;50.148;19.760;2023-07-16T11:11:28;36.80;45.80
21355;DHT22;10835;50.148;19.760;2023-07-16T11:13:56;37.00;45.20
21355;DHT22;10835;50.148;19.760;2023-07-16T11:16:24;37.00;46.50
21355;DHT22;10835;50.148;19.760;2023-07-16T11:18:53;37.20;46.60
21355;DHT22;10835;50.148;19.760;2023-07-16T11:21:24;37.20;45.60
21355;DHT22;10835;50.148;19.760;2023-07-16T11:23:53;37.20;44.80
21355;DHT22;10835;50.148;19.760;2023-07-16T11:26:21;37.20;44.50
21355;DHT22;10835;50.148;19.760;2023-07-16T11:28:51;37.20;45.40
21355;DHT22;10835;50.148;19.760;2023-07-16T11:31:19;37.30;47.00
21355;DHT22;10835;50.148;19.760;2023-07-16T11:33:50;37.20;47.50
21355;DHT22;10835;50.148;19.760;2023-07-16T11:36:19;37.10;46.20
21355;DHT22;10835;50.148;19.760;2023-07-16T11:38:50;37.20;45.60
21355;DHT22;10835;50.148;19.760;2023-07-16T11:41:20;37.40;45.40
21355;DHT22;10835;50.148;19.760;2023-07-16T11:43:50;37.40;45.50
21355;DHT22;10835;50.148;19.760;2023-07-16T11:46:18;37.50;46.80
21355;DHT22;10835;50.148;19.760;2023-07-16T11:48:47;37.90;44.70
21355;DHT22;10835;50.148;19.760;2023-07-16T11:51:15;37.90;46.20
21355;DHT22;10835;50.148;19.760;2023-07-16T11:53:44;37.70;45.30
21355;DHT22;10835;50.148;19.760;2023-07-16T11:56:13;37.50;46.10
21355;DHT22;10835;50.148;19.760;2023-07-16T11:58:44;37.30;47.50
21355;DHT22;10835;50.148;19.760;2023-07-16T12:01:13;37.50;47.40
21355;DHT22;10835;50.148;19.760;2023-07-16T12:03:44;37.40;46.10
21355;DHT22;10835;50.148;19.760;2023-07-16T12:06:12;37.50;47.00
21355;DHT22;10835;50.148;19.760;2023-07-16T12:08:41;37.70;45.10
21355;DHT22;10835;50.148;19.760;2023-07-16T12:11:09;37.80;45.50
21355;DHT22;10835;50.148;19.760;2023-07-16T12:13:39;37.70;46.00
21355;DHT22;10835;50.148;19.760;2023-07-16T12:16:08;37.50;45.90
21355;DHT22;10835;50.148;19.760;2023-07-16T12:18:37;37.70;44.40
21355;DHT22;10835;50.148;19.760;2023-07-16T12:21:05;37.70;45.10
21355;DHT22;10835;50.148;19.760;2023-07-16T12:23:33;37.70;46.50
21355;DHT22;10835;50.148;19.760;2023-07-16T12:26:02;37.50;45.30
21355;DHT22;10835;50.148;19.760;2023-07-16T12:28:30;37.60;44.60
21355;DHT22;10835;50.148;19.760;2023-07-16T12:31:00;37.60;46.20
21355;DHT22;10835;50.148;19.760;2023-07-16T12:33:28;37.60;45.80
21355;DHT22;10835;50.148;19.760;2023-07-16T12:35:56;37.40;47.30
21355;DHT22;10835;50.148;19.760;2023-07-16T12:38:26;37.60;46.90
21355;DHT22;10835;50.148;19.760;2023-07-16T12:40:55;37.90;46.40
21355;DHT22;10835;50.148;19.760;2023-07-16T12:43:23;38.00;45.40
21355;DHT22;10835;50.148;19.760;2023-07-16T12:45:51;38.10;44.00
21355;DHT22;10835;50.148;19.760;2023-07-16T12:48:21;38.10;44.10
21355;DHT22;10835;50.148;19.760;2023-07-16T12:50:49;38.10;47.30
21355;DHT22;10835;50.148;19.760;2023-07-16T12:53:17;38.20;47.00
21355;DHT22;10835;50.148;19.760;2023-07-16T12:55:46;38.20;47.20
21355;DHT22;10835;50.148;19.760;2023-07-16T12:58:14;38.20;47.70
21355;DHT22;10835;50.148;19.760;2023-07-16T13:00:42;38.30;46.80
21355;DHT22;10835;50.148;19.760;2023-07-16T13:03:12;38.30;46.50
21355;DHT22;10835;50.148;19.760;2023-07-16T13:05:45;38.30;46.10
21355;DHT22;10835;50.148;19.760;2023-07-16T13:08:14;38.40;45.50
21355;DHT22;10835;50.148;19.760;2023-07-16T13:10:42;38.30;45.80
21355;DHT22;10835;50.148;19.760;2023-07-16T13:13:10;38.30;45.50
21355;DHT22;10835;50.148;19.760;2023-07-16T13:15:39;38.50;44.80
21355;DHT22;10835;50.148;19.760;2023-07-16T13:18:09;38.40;45.50
21355;DHT22;10835;50.148;19.760;2023-07-16T13:20:38;38.20;46.20
21355;DHT22;10835;50.148;19.760;2023-07-16T13:23:08;38.30;46.70
21355;DHT22;10835;50.148;19.760;2023-07-16T13:25:37;38.30;46.20
21355;DHT22;10835;50.148;19.760;2023-07-16T13:28:05;38.60;45.30
21355;DHT22;10835;50.148;19.760;2023-07-16T13:30:34;38.40;45.30
21355;DHT22;10835;50.148;19.760;2023-07-16T13:33:02;38.50;44.80
21355;DHT22;10835;50.148;19.760;2023-07-16T13:35:31;38.80;42.70
21355;DHT22;10835;50.148;19.760;2023-07-16T13:37:59;39.00;42.50
21355;DHT22;10835;50.148;19.760;2023-07-16T13:40:29;39.10;42.00
21355;DHT22;10835;50.148;19.760;2023-07-16T13:42:58;39.00;43.10
21355;DHT22;10835;50.148;19.760;2023-07-16T13:45:26;39.00;43.10
21355;DHT22;10835;50.148;19.760;2023-07-16T13:47:55;38.70;43.70
21355;DHT22;10835;50.148;19.760;2023-07-16T13:50:23;38.70;42.70
21355;DHT22;10835;50.148;19.760;2023-07-16T13:52:51;38.70;43.20
21355;DHT22;10835;50.148;19.760;2023-07-16T13:55:20;38.70;43.90
21355;DHT22;10835;50.148;19.760;2023-07-16T13:57:50;38.60;43.60
21355;DHT22;10835;50.148;19.760;2023-07-16T14:00:18;38.70;45.00
21355;DHT22;10835;50.148;19.760;2023-07-16T14:02:47;38.80;43.00
21355;DHT22;10835;50.148;19.760;2023-07-16T14:05:15;38.90;41.70
21355;DHT22;10835;50.148;19.760;2023-07-16T14:07:44;38.90;42.00
21355;DHT22;10835;50.148;19.760;2023-07-16T14:10:12;38.70;42.90
21355;DHT22;10835;50.148;19.760;2023-07-16T14:12:42;38.60;42.40
21355;DHT22;10835;50.148;19.760;2023-07-16T14:15:12;38.60;42.70
21355;DHT22;10835;50.148;19.760;2023-07-16T14:17:41;38.90;42.50
21355;DHT22;10835;50.148;19.760;2023-07-16T14:20:10;38.70;41.90
21355;DHT22;10835;50.148;19.760;2023-07-16T14:22:39;38.80;43.50
21355;DHT22;10835;50.148;19.760;2023-07-16T14:25:07;38.90;41.60
21355;DHT22;10835;50.148;19.760;2023-07-16T14:27:39;38.80;42.30
21355;DHT22;10835;50.148;19.760;2023-07-16T14:30:10;38.80;43.50
21355;DHT22;10835;50.148;19.760;2023-07-16T14:32:40;38.90;43.70
21355;DHT22;10835;50.148;19.760;2023-07-16T14:35:10;39.00;43.30
21355;DHT22;10835;50.148;19.760;2023-07-16T14:37:58;39.00;41.80
21355;DHT22;10835;50.148;19.760;2023-07-16T14:40:27;38.90;41.30
21355;DHT22;10835;50.148;19.760;2023-07-16T14:42:55;38.80;41.00
21355;DHT22;10835;50.148;19.760;2023-07-16T14:45:23;38.70;42.40
21355;DHT22;10835;50.148;19.760;2023-07-16T14:47:53;38.80;40.60
21355;DHT22;10835;50.148;19.760;2023-07-16T14:50:22;38.50;40.90
21355;DHT22;10835;50.148;19.760;2023-07-16T14:52:51;38.60;40.50
21355;DHT22;10835;50.148;19.760;2023-07-16T14:55:19;38.60;41.30
21355;DHT22;10835;50.148;19.760;2023-07-16T14:57:48;38.60;39.20
21355;DHT22;10835;50.148;19.760;2023-07-16T15:00:19;38.60;40.10
21355;DHT22;10835;50.148;19.760;2023-07-16T15:02:49;38.60;40.20
21355;DHT22;10835;50.148;19.760;2023-07-16T15:05:19;38.90;40.30
21355;DHT22;10835;50.148;19.760;2023-07-16T15:07:48;39.00;41.80
21355;DHT22;10835;50.148;19.760;2023-07-16T15:10:16;39.30;39.00
21355;DHT22;10835;50.148;19.760;2023-07-16T15:12:44;39.40;39.00
21355;DHT22;10835;50.148;19.760;2023-07-16T15:15:13;39.40;38.80
21355;DHT22;10835;50.148;19.760;2023-07-16T15:17:42;39.30;42.60
21355;DHT22;10835;50.148;19.760;2023-07-16T15:20:11;39.30;39.20
21355;DHT22;10835;50.148;19.760;2023-07-16T15:22:43;39.20;41.20
21355;DHT22;10835;50.148;19.760;2023-07-16T15:25:12;39.20;40.30
21355;DHT22;10835;50.148;19.760;2023-07-16T15:27:40;39.00;42.50
21355;DHT22;10835;50.148;19.760;2023-07-16T15:30:09;39.10;42.00